x

8447387 - Borden Flats Light At Fall River, Ma (bltm3) Weather Station

5:54 - Mon 30th May 2016 All times are EDT. -4 hours from GMT.

  • Wind
    3mph, 6mph gusts
  • Aire Temp 60°f
  • Sea Pressure 1016.9mb
  • 8447387 - Borden Flats Light At Fall River, Ma
  • 8447387 - Borden Flats Light At Fall River, Ma

More Historic Weather Station data

Upgrade to MSW Pro to gain access to the past 30 days of data for over 8000 Wavebouys and Weather Stations around the globe.

Join Pro

Comparision Forecast

View Surf forecast
   
lun 05/30 5:54 3 6 mph 1016.9mb 60f
5:48 6
mph
1016.8mb 60f
5:42 3 6 mph 1017.1mb 59f
5:36 2 3 mph 1017.2mb 60f
5:30 3 6 mph 1017.1mb 60f
5:24 6 8 mph 1017mb 60f
5:12 3 6 mph 1017.1mb 59f
5:06 6 7 mph 1017.1mb 59f
5:00 6
mph
1017.2mb 59f
4:54 6 7 mph 1017.2mb 59f
4:48 5 6 mph 1017.3mb 59f
4:42 5 6 mph 1017.4mb 60f
4:36 6 7 mph 1017.3mb 60f
4:30 6 7 mph 1017.4mb 59f
4:24 6 8 mph 1017.4mb 59f
4:18 6 7 mph 1017.5mb 60f
4:12 6 7 mph 1017.5mb 59f
4:06 6 7 mph 1017.6mb 59f
4:00 6 7 mph 1017.7mb 60f
3:54 6 7 mph 1017.7mb 60f
3:48 6 7 mph 1017.8mb 60f
3:42 6 7 mph 1017.8mb 59f
3:36 7 8 mph 1017.9mb 59f
3:30 6 7 mph 1018.1mb 59f
3:24 7 8 mph 1018.1mb 59f
3:18 6 7 mph 1018.2mb 59f
3:12 7 8 mph 1018.1mb 59f
3:06 7 8 mph 1018.2mb 59f
3:00 7 8 mph 1018.3mb 59f
2:54 7 8 mph 1018.3mb 60f
2:48 6 7 mph 1018.4mb 60f
2:42 6 7 mph 1018.4mb 60f
2:36 5 6 mph 1018.6mb 60f
2:30 6 7 mph 1018.6mb 60f
2:24 6 7 mph 1018.8mb 60f
2:18 5 6 mph 1018.9mb 60f
2:06 6 7 mph 1019mb 60f
2:00 6 7 mph 1019mb 60f
1:54 6 8 mph 1019.1mb 60f
1:48  -  mph 1019.2mb 60f
1:42  -  mph 1019.2mb 60f
1:36  -  mph 1019.3mb 60f
1:30 5 6 mph 1019.4mb 60f
1:24 6 8 mph 1019.4mb 60f
1:18 5 6 mph 1019.7mb 60f
1:12 5 6 mph 1019.7mb 60f
1:06 5 6 mph 1019.7mb 60f
1:00 5 6 mph 1019.8mb 60f
12:54 5
mph
1019.9mb 60f
12:48 5 6 mph 1019.9mb 60f
12:42 6 7 mph 1019.8mb 60f
12:36 6 7 mph 1019.9mb 60f
12:30 6 7 mph 1020mb 60f
12:24 7
mph
1020mb 59f
12:18 6 8 mph 1020.1mb 59f
12:12 6 7 mph 1020.3mb 59f
12:06 7 8 mph 1020.3mb 59f
12:00 8 9 mph 1020.3mb 59f
dom 05/29 11:54 7 8 mph 1020.5mb 59f
11:48  -  mph 1020.4mb 59f
11:42  -  mph 1020.4mb 59f
11:36  -  mph 1020.5mb 60f
11:30 6 8 mph 1020.6mb 60f
11:24 8 9 mph 1020.4mb 60f
11:18  -  mph 1020.5mb 60f
11:12  -  mph 1020.6mb 60f
11:06  -  mph 1020.6mb 60f
11:00  -  mph - 60f
10:54  -  mph - 60f
10:48 8
mph
1020.6mb -
10:42 7 8 mph 1020.8mb -
10:36 7 8 mph 1021mb -
10:30  -  mph 1020.9mb -
10:24  -  mph 1021mb -
10:18  -  mph 1021.1mb -
10:12  -  mph 1021.1mb -
10:06  -  mph 1021mb -
10:00  -  mph - 60f
9:54  -  mph - 61f
9:48 9 11 mph 1021.1mb -
9:42 13 14 mph 1021.1mb -
9:36 13 15 mph 1021.1mb -
9:30  -  mph 1021.1mb -
9:24  -  mph 1021.1mb -
9:18  -  mph - 61f
9:12  -  mph - 61f
9:06  -  mph - 61f
9:00  -  mph 1020.8mb -
8:54  -  mph 1020.9mb -
8:48  -  mph 1020.9mb -
8:42  -  mph 1020.9mb -
8:36  -  mph 1021mb -
8:30  -  mph 1020.9mb -
8:24  -  mph 1021.1mb -
8:18  -  mph - 65f
8:12  -  mph - 65f
8:06  -  mph - 66f
8:00  -  mph 1021.1mb 66f
7:54  -  mph 1021.1mb 67f
7:48  -  mph 1021mb -
7:42  -  mph 1021.1mb -
7:36  -  mph 1021mb -
7:30 6 8 mph - -
7:24 5 6 mph - -
7:18  -  mph - 68f
7:12  -  mph - 68f
7:06  -  mph - 71f
7:00  -  mph 1020.6mb -
6:54  -  mph 1020.5mb -
6:48  -  mph 1020.3mb -
6:42  -  mph 1020.3mb -
6:36  -  mph 1020.1mb -
6:30 10 11 mph 1020mb -
6:24 10 13 mph 1020mb -
6:18  -  mph - 73f
6:12  -  mph - 73f
6:06  -  mph - 73f
6:00  -  mph - 74f
5:54  -  mph - 74f
5:48  -  mph - 74f
5:42  -  mph - 75f
5:36  -  mph - 75f
5:30 10 11 mph 1020.6mb 76f
5:24 8 9 mph 1020.6mb 76f
5:18 8 9 mph 1020.7mb 76f
5:12 8 10 mph 1020.6mb 75f
5:06 9 10 mph 1020.6mb 75f
5:00 10 11 mph 1020.5mb 75f
4:54 8 10 mph 1020.5mb 75f
4:48 10 11 mph 1020.6mb 75f
4:42 10 11 mph 1020.5mb 75f
4:36 11 13 mph 1020.6mb 75f
4:30 10 13 mph 1020.6mb 76f
4:24 9 10 mph 1020.6mb 76f
4:18 10 13 mph 1020.8mb 76f
4:12 9 11 mph 1020.8mb 76f
4:06 7 10 mph 1020.8mb 76f
4:00  -  2 mph 1020.9mb 74f
3:54 2 6 mph 1021.1mb 72f
3:48 2 5 mph 1021mb 73f
3:42 2 5 mph 1020.9mb 76f
3:36 5 6 mph 1020.9mb 78f
3:30 6
mph
1021mb 79f
3:24 3 6 mph 1021mb 78f
3:18 6 8 mph 1020.9mb 76f
3:12 8 10 mph 1021mb 76f
3:06 9 13 mph 1021.1mb 76f
3:00 10 11 mph 1021.1mb 76f
2:54 10 11 mph 1021.1mb 75f
2:48 10 11 mph 1021.2mb 76f
2:42 10 11 mph 1021.2mb 75f
2:36 11 13 mph 1021.2mb 75f
2:30 10 13 mph 1021.2mb 75f
2:24 10 13 mph 1021.3mb 74f
2:18 11 13 mph 1021.4mb 74f
2:12 11 13 mph 1021.3mb 74f
2:06 11 13 mph 1021.3mb 74f
2:00 13 14 mph 1021.3mb 74f
1:54 14 15 mph 1021.4mb 74f
1:48 13 14 mph 1021.5mb 74f
1:42 13 14 mph 1021.5mb 74f
1:36 13 14 mph 1021.6mb 73f
1:30 13 15 mph 1021.7mb 74f
1:24 11 14 mph 1021.7mb 74f
1:18 13 14 mph 1021.7mb 74f
1:12 11 14 mph 1021.8mb 74f
1:06 10 13 mph 1021.8mb 74f
1:00 10 13 mph 1021.9mb 74f
12:54 10 11 mph 1021.9mb 74f
12:48 10 11 mph 1021.8mb 74f
12:42 10
mph
1021.8mb 73f
12:36 10 11 mph 1021.8mb 73f
12:30 10 11 mph 1021.8mb 73f
12:24 11 13 mph 1021.8mb 73f
12:18 10 13 mph 1021.8mb 72f
12:12 10 11 mph 1021.9mb 72f
12:06 10 11 mph 1021.9mb 72f
12:00 10 11 mph 1021.9mb 72f
11:54 10 11 mph 1021.9mb 72f
11:48 10 11 mph 1022mb 71f
11:42 10 11 mph 1022.1mb 71f
11:36 9 10 mph 1022.2mb 71f
11:30 10 11 mph 1022.1mb 71f
11:24 10 13 mph 1022.2mb 70f
11:18 10 13 mph 1022.2mb 70f
11:12 11 13 mph 1022.3mb 70f
11:06 11 13 mph 1022.4mb 69f
11:00 11 13 mph 1022.4mb 69f
10:54 10 11 mph 1022.4mb 69f
10:48 10 11 mph 1022.4mb 69f
10:42 11 13 mph 1022.4mb 68f
10:36 11 13 mph 1022.4mb 68f
10:30 10 11 mph 1022.4mb 68f
10:24 10 13 mph 1022.4mb 68f
10:18 10 11 mph 1022.4mb 68f
10:12 10
mph
1022.4mb 68f
10:06 9 10 mph 1022.3mb 67f
10:00 10 11 mph 1022.3mb 67f
9:54 11 14 mph 1022.3mb 67f
9:48 10 11 mph 1022.3mb 67f
9:42 10 13 mph 1022.2mb 67f
9:36 10 11 mph 1022.2mb 66f
9:30 11 14 mph 1022.1mb 66f
9:24 13 14 mph 1022.2mb 66f
9:18 13 14 mph 1022.2mb 67f
9:12 13 15 mph 1022.2mb 67f
9:06 13 14 mph 1022.1mb 67f
8:54 13 14 mph 1022.1mb 67f
8:48 11 14 mph 1022mb 67f
8:42 11 13 mph 1022mb 67f
8:36 11 13 mph 1021.9mb 67f
8:30 9 10 mph 1022mb 67f
8:24 9 10 mph 1021.9mb 68f
8:12 8 9 mph 1021.8mb 68f
8:06 8 9 mph 1021.7mb 68f
8:00 8 9 mph 1021.7mb 68f
7:54 9 11 mph 1021.6mb 68f
7:48 10 13 mph 1021.6mb 67f
7:42 10 13 mph 1021.6mb 68f
7:36 9 10 mph 1021.5mb 68f
7:30 9 11 mph 1021.4mb 68f
7:24 7 9 mph 1021.3mb 68f
7:18 3 6 mph 1021.3mb 68f
7:12 5 6 mph 1021.3mb 67f
7:06 6
mph
1021.2mb 67f
7:00 7 8 mph 1021.2mb 67f
6:54 7 8 mph 1021.1mb 67f
6:48 6 7 mph 1021.2mb 66f
6:42 6 7 mph 1021.2mb 65f
6:36 3 5 mph 1021.1mb 65f
6:30 3 5 mph 1021mb 65f
6:24 5 6 mph 1021mb 65f
6:18 5 6 mph 1020.8mb 64f
6:12 6 7 mph 1020.8mb 65f
6:06 6 7 mph 1020.8mb 65f
6:00 6
mph
1020.7mb 65f
5:54 7
mph
1020.5mb 65f
5:48 5 6 mph 1020.5mb 65f
5:42 2 3 mph 1020.6mb 65f
5:36 2
mph
1020.5mb 65f
5:30 1
mph
1020.4mb 66f
5:24 1 2 mph 1020.4mb 66f
5:18 1 2 mph 1020.3mb 66f
5:12 1 2 mph 1020.2mb 66f
5:06 2
mph
1020.2mb 66f
5:00 2 3 mph 1020.1mb 66f
4:54 2 3 mph 1020.1mb 66f
4:48 5
mph
1020.1mb 66f
4:42 5
mph
1020.2mb 67f
4:36 5 6 mph 1020.1mb 67f
4:30 6 7 mph 1020mb 67f
4:24 6 8 mph 1019.9mb 68f
4:18 10 11 mph 1019.7mb 68f
4:12 13 14 mph 1019.7mb 68f
4:06 13 15 mph 1019.7mb 68f
4:00 13 15 mph 1019.8mb 68f
3:54 13 14 mph 1019.8mb 68f
3:48 13 14 mph 1019.8mb 68f
3:42 11 14 mph 1019.8mb 68f
3:36 10 14 mph 1019.9mb 68f
3:30 11 14 mph 1019.9mb 68f
3:24 11 14 mph 1019.9mb 68f
3:18 14 15 mph 1019.8mb 68f
3:12 14 16 mph 1019.9mb 68f
3:06 14 16 mph 1019.9mb 69f
3:00 13 15 mph 1019.8mb 69f
2:54 13 15 mph 1019.8mb 69f
2:48 14 16 mph 1019.8mb 69f
2:42 14 16 mph 1019.8mb 69f
2:36 14 17 mph 1019.8mb 69f
2:30 14 16 mph 1019.9mb 69f
2:24 13 16 mph 1019.9mb 69f
2:18 14 16 mph 1019.9mb 69f
2:12 14 16 mph 1019.9mb 69f
2:06 14 17 mph 1019.9mb 69f
2:00 14 16 mph 1020mb 69f
1:54 14 17 mph 1019.9mb 69f
1:48  -  mph 1019.9mb 70f
1:42  -  mph 1019.9mb 70f
1:36  -  mph 1019.9mb 70f
1:30 13 16 mph 1019.9mb 70f
1:24 11 15 mph 1019.9mb 70f
1:18 11 15 mph 1019.9mb 71f
1:12 11 14 mph 1020mb 71f
1:06 11 16 mph 1019.9mb 71f
1:00 10 14 mph 1020mb 71f
12:54 11 15 mph 1020mb 71f
12:48 10 15 mph 1020mb 71f
12:42 14 16 mph 1020.1mb 71f
12:36 14 16 mph 1020mb 71f
12:30 14 17 mph 1020.1mb 71f
12:24 14 18 mph 1020mb 71f
12:18 15 17 mph 1020mb 71f
12:12 14 17 mph 1020mb 71f
12:06 14 16 mph 1020mb 71f
12:00 14 17 mph 1020mb 71f
sáb 05/28 11:54 14 18 mph 1019.9mb 71f
11:48 14 17 mph 1019.9mb 71f
11:42 15 18 mph 1019.9mb 72f
11:36 15 18 mph 1019.9mb 72f
11:30 14 16 mph 1020mb 71f
11:24 14 17 mph 1020mb 71f
11:18  -  mph 1020mb 71f
11:12  -  mph 1020mb 71f
11:06  -  mph 1020mb 71f
11:00  -  mph 1019.9mb 71f
10:54  -  mph 1019.9mb 71f
10:48 13 15 mph - -
10:42 14 16 mph - -
10:36 14 15 mph - -
10:30 14 15 mph 1019.8mb -
10:24 13 16 mph 1019.9mb -
10:18  -  mph 1019.9mb 72f
10:12  -  mph 1019.8mb 72f
10:06  -  mph 1019.9mb 72f
10:00  -  mph 1019.9mb -
9:54  -  mph 1019.9mb -
9:48  -  mph - 72f
9:42  -  mph - 72f
9:36  -  mph - 72f
9:30 13 15 mph - -
9:24 11 14 mph - -
9:18  -  mph 1019.7mb 72f
9:12  -  mph 1019.7mb 72f
9:06  -  mph 1019.6mb 71f
9:00  -  mph 1019.6mb -
8:54  -  mph 1019.5mb -
8:48  -  mph 1019.5mb -
8:42  -  mph 1019.4mb -
8:36  -  mph 1019.4mb -
8:30 10 13 mph - -
8:24 9 11 mph - -
8:18  -  mph 1019.3mb -
8:12  -  mph 1019.3mb -
8:06  -  mph 1019.3mb -
8:00 7 10 mph - -
7:54 9 13 mph - -
7:48  -  mph 1019.2mb -
7:42  -  mph 1019.2mb -
7:36  -  mph 1019.1mb -
7:30 11 14 mph 1019.1mb -
7:24 11 14 mph 1019mb -
7:18  -  mph - 74f
7:12  -  mph - 74f
7:06  -  mph - 74f
7:00 11 15 mph - -
6:54 11 15 mph - -
6:48 13 16 mph - -
6:42 13 18 mph - -
6:36 13 17 mph - -
6:30  -  mph 1018.4mb -
6:24  -  mph 1018.4mb -
6:18  -  mph 1018.5mb 77f
6:12  -  mph 1018.5mb 78f
6:06  -  mph 1018.5mb 78f
6:00 14 17 mph - -
5:54 13 16 mph - -
5:48  -  mph 1018.5mb 79f
5:42  -  mph 1018.5mb 80f
5:36  -  mph 1018.5mb 79f
5:30 14 17 mph 1018.5mb 80f
5:24 14 18 mph 1018.5mb 80f
5:18 14 21 mph 1018.4mb 80f
5:12 14 20 mph 1018.3mb 79f
5:06 16 21 mph 1018.2mb 80f
5:00 15 21 mph 1018.2mb 81f
4:54 11 15 mph 1018.2mb 81f
4:48 11 17 mph 1018.2mb 80f
4:42 14 20 mph 1018.2mb 80f
4:36 14 18 mph 1018.2mb 80f
4:30 14 18 mph 1018.1mb 80f
4:24 14 18 mph 1018.1mb 80f
4:18 13 16 mph 1018.2mb 80f
4:12 13 17 mph 1018.1mb 80f
4:06 14 17 mph 1018.1mb 80f
4:00 11 15 mph 1018.1mb 80f
3:54 13 16 mph 1018.2mb 80f
3:48 14 17 mph 1018.2mb 79f
3:42 17 22 mph 1018.2mb 80f
3:36 16 22 mph 1018.2mb 80f
3:30 15 20 mph 1018.3mb 79f
3:24 15 17 mph 1018.3mb 79f
3:18 13 18 mph 1018.3mb 80f
3:12 13 16 mph 1018.2mb 81f
3:06 9 14 mph 1018.4mb 80f
3:00 8 10 mph 1018.4mb 75f
2:54 11 14 mph 1018.5mb 73f
2:48 11 14 mph 1018.5mb 72f
2:42 11 14 mph 1018.6mb 71f
2:36 13 14 mph 1018.6mb 71f
2:30 13 15 mph 1018.6mb 71f
2:24 14 16 mph 1018.7mb 71f
2:18 10 14 mph 1018.7mb 73f
2:12 14 16 mph 1018.6mb 72f
2:06 14 16 mph 1018.6mb 72f
2:00 15 17 mph 1018.6mb 72f
1:54 15 16 mph 1018.7mb 72f
1:48 15 16 mph 1018.7mb 72f
1:42 15
mph
1018.8mb 72f
1:36 14 15 mph 1018.9mb 72f
1:30 14 16 mph 1019mb 72f
1:24 14 16 mph 1019mb 72f
1:18 15 17 mph 1019mb 71f
1:12 17 18 mph 1019.1mb 71f
1:06 16 17 mph 1019.1mb 71f
1:00 16 17 mph 1019.2mb 71f
12:54 16 17 mph 1019.2mb 71f
12:48 16 18 mph 1019.2mb 71f
12:42 15 16 mph 1019.3mb 71f
12:36 15
mph
1019.3mb 71f
12:30 15 16 mph 1019.4mb 71f
12:24 15 16 mph 1019.4mb 71f
12:18 16 17 mph 1019.5mb 70f
12:12 13 14 mph 1019.4mb 70f
12:06 13 14 mph 1019.4mb 70f
12:00 13 14 mph 1019.5mb 69f
11:54 10 13 mph 1019.5mb 70f
11:48 13 15 mph 1019.5mb 70f
11:42 13
mph
1019.5mb 70f
11:36 14 15 mph 1019.5mb 69f
11:30 13
mph
1019.4mb 69f
11:24 11 13 mph 1019.5mb 69f
11:18 11
mph
1019.5mb 69f
11:12 10 11 mph 1019.6mb 69f
11:06 10
mph
1019.5mb 69f
11:00 9 10 mph 1019.5mb 68f
10:54 11 13 mph 1019.6mb 68f
10:48 13
mph
1019.7mb 68f
10:42 10 11 mph 1019.8mb 68f
10:36 9 10 mph 1019.8mb 68f
10:30 9 10 mph 1019.8mb 69f
10:24 9 11 mph 1019.8mb 70f
10:18 10 11 mph 1019.7mb 69f
10:12 9 10 mph 1019.7mb 70f
10:06 9 10 mph 1019.6mb 70f
10:00 9 10 mph 1019.5mb 70f
9:54 10 13 mph 1019.5mb 69f
9:48 10 13 mph 1019.5mb 69f
9:42 11 14 mph 1019.5mb 69f
9:36 10 11 mph 1019.5mb 69f
9:30 10 11 mph 1019.6mb 69f
9:24 9 11 mph 1019.6mb 69f
9:18 10 11 mph 1019.7mb 68f
9:12 10 11 mph 1019.7mb 68f
9:06 10
mph
1019.7mb 68f
9:00 10 13 mph 1019.7mb 68f
8:54 11 13 mph 1019.7mb 67f
8:48 13 14 mph 1019.7mb 67f
8:42 13
mph
1019.6mb 67f
8:36 11 13 mph 1019.7mb 67f
8:30 11 13 mph 1019.7mb 67f
8:24 11 13 mph 1019.6mb 67f
8:18 13 14 mph 1019.5mb 67f
8:12 11 13 mph 1019.5mb 67f
8:06 13 14 mph 1019.5mb 67f
8:00 13 14 mph 1019.5mb 67f
7:54 13 14 mph 1019.5mb 67f
7:48 13 14 mph 1019.5mb 67f
7:42 13 14 mph 1019.6mb 66f
7:36 11 14 mph 1019.6mb 66f
7:30 11 14 mph 1019.6mb 66f
7:24 11 14 mph 1019.6mb 66f
7:18 10 11 mph 1019.5mb 66f
7:12 10 13 mph 1019.5mb 65f
7:06 10 13 mph 1019.5mb 65f
7:00 10 11 mph 1019.5mb 65f
6:54 10 11 mph 1019.4mb 65f
6:48 10 11 mph 1019.4mb 65f
6:42 10 11 mph 1019.4mb 65f
6:36 9 11 mph 1019.3mb 65f
6:30 9 10 mph 1019.3mb 65f
6:24 9 10 mph 1019.2mb 65f
6:18 9 11 mph 1019.1mb 65f
6:12 10 13 mph 1019mb 65f
6:06 11 15 mph 1018.9mb 65f
6:00 9 13 mph 1018.9mb 65f
5:54 9 10 mph 1018.9mb 65f
5:48 8 10 mph 1018.8mb 64f
5:42 9 11 mph 1018.8mb 64f
5:36 10 11 mph 1018.8mb 64f
5:30 9 11 mph 1018.7mb 65f
5:24 10 13 mph 1018.7mb 65f
5:18 9 11 mph 1018.7mb 65f
5:12 10 13 mph 1018.7mb 65f
5:06 10 13 mph 1018.7mb 65f
5:00 10 13 mph 1018.6mb 65f
4:54 11 16 mph 1018.6mb 65f
4:48 11 14 mph 1018.6mb 65f
4:42 11 15 mph 1018.6mb 65f
4:36 11 14 mph 1018.5mb 65f
4:30 11 15 mph 1018.4mb 65f
4:24 13 16 mph 1018.5mb 65f
4:18 14 18 mph 1018.4mb 65f
4:12 13 15 mph 1018.5mb 65f
4:06 13 16 mph 1018.5mb 65f
4:00 14 18 mph 1018.4mb 65f
3:54 15 17 mph 1018.4mb 65f
3:48 15 20 mph 1018.4mb 66f
3:42 15 20 mph 1018.4mb 66f
3:36 15 21 mph 1018.4mb 66f
3:30 16 21 mph 1018.4mb 66f
3:24 18 22 mph 1018.4mb 66f
3:18 16 22 mph 1018.3mb 67f
3:12 15 18 mph 1018.5mb 66f
3:06 14 16 mph 1018.5mb 66f
3:00 16 20 mph 1018.5mb 66f
2:54 17 21 mph 1018.6mb 66f
2:48 16 20 mph 1018.6mb 66f
2:42 17 20 mph 1018.6mb 66f
2:36 17 22 mph 1018.5mb 65f
2:30 17 22 mph 1018.5mb 65f
2:24 17 22 mph 1018.6mb 65f
2:18  -  mph 1018.7mb 65f
2:12  -  mph 1018.7mb 66f
2:06  -  mph 1018.7mb 65f
2:00  -  mph 1018.6mb 66f
1:54  -  mph 1018.6mb 66f
1:48 17 21 mph 1018.5mb 66f
1:42 17 20 mph 1018.4mb 66f
1:36 16 20 mph 1018.5mb 66f
1:30 17 22 mph 1018.4mb 66f
1:24 16 20 mph 1018.5mb 66f
1:18 18 21 mph 1018.6mb 66f
1:12 16 21 mph 1018.7mb 66f
1:06 15 22 mph 1018.7mb 66f
1:00 14 17 mph 1018.8mb 66f
12:54 14 18 mph 1018.9mb 66f
12:48 11 14 mph 1019mb 66f
12:42 11 15 mph 1019.1mb 66f
12:36 10 13 mph 1019.2mb 65f
12:30 9 11 mph 1019.2mb 65f
12:24 10 13 mph 1019.2mb 65f
12:18 11 14 mph 1019.2mb 65f
12:12 11 15 mph 1019.2mb 66f
12:06 14 16 mph 1019.1mb 66f
12:00 14 16 mph 1019mb 66f
vie 05/27 11:54 16 20 mph 1019.1mb 67f
11:48  -  mph 1018.9mb 67f
11:42  -  mph 1018.8mb 67f
11:36  -  mph 1018.9mb 67f
11:30 14 17 mph 1019mb 66f
11:24 14 17 mph 1018.9mb 67f
11:18  -  mph 1018.8mb -
11:12  -  mph 1018.7mb -
11:06  -  mph 1018.6mb -
11:00 20 24 mph 1018.5mb -
10:54 22 26 mph 1018.4mb -
10:48 20 23 mph 1018.4mb -
10:42 17 22 mph 1018.5mb -
10:36 17 21 mph 1018.6mb -
10:30  -  mph 1018.8mb -
10:24  -  mph 1018.9mb -
10:18  -  mph 1018.9mb 67f
10:12  -  mph 1018.8mb 67f
10:06  -  mph 1018.7mb 67f
10:00 16 21 mph 1018.9mb -
9:54 16 22 mph 1018.8mb -
9:48  -  mph 1018.8mb -
9:42  -  mph 1018.7mb -
9:36  -  mph 1018.6mb -
9:30 15 20 mph 1018.6mb -
9:24 15 18 mph 1018.7mb -
9:18  -  mph 1018.6mb -
9:12  -  mph 1018.6mb -
9:06  -  mph 1018.5mb -
9:00 14 17 mph 1018.3mb -
8:54 15 21 mph 1018.1mb -
8:48  -  mph 1018mb -
8:42  -  mph 1017.8mb -
8:36  -  mph 1017.8mb -
8:30 13 16 mph 1017.9mb -
8:24 13 17 mph 1018mb -
8:18  -  mph - 68f
8:12  -  mph - 68f
8:06  -  mph - 68f
8:00  -  mph 1018mb -
7:54  -  mph 1017.9mb -
7:48  -  mph 1017.9mb -
7:42  -  mph 1017.9mb -
7:36  -  mph 1017.9mb -
7:30 11 15 mph 1017.8mb -
7:24 14 18 mph 1017.9mb -
7:18  -  mph 1018mb 71f
7:12  -  mph 1018mb 71f
7:06  -  mph 1017.9mb 71f
7:00 16 20 mph 1017.9mb -
6:54 15 21 mph 1017.8mb -
6:48 20 26 mph 1017.8mb -
6:42 18 23 mph 1017.8mb -
6:36 18 23 mph 1017.8mb -
6:30 21 25 mph 1017.7mb -
6:24 18 23 mph 1017.8mb -
6:18  -  mph 1017.8mb -
6:12  -  mph 1017.7mb -
6:06  -  mph 1017.6mb -
6:00  -  mph 1017.6mb -
5:54  -  mph 1017.5mb -
5:48  -  mph 1017.6mb -
5:42  -  mph 1017.6mb -
5:36  -  mph 1017.7mb -
5:30 18 22 mph 1017.6mb 73f
5:24 17 23 mph 1017.7mb 73f
5:18 18 23 mph 1017.7mb 73f
5:12 18 24 mph 1017.8mb 73f
5:06 20 25 mph 1017.8mb 73f
5:00 22 29 mph 1017.7mb 74f
4:54 22 29 mph 1017.7mb 74f
4:48 24 30 mph 1017.7mb 74f
4:42 18 24 mph 1017.7mb 74f
4:36 22 29 mph 1017.6mb 74f
4:30 18 26 mph 1017.7mb 74f
4:24 22 26 mph 1017.7mb 74f
4:18 18 23 mph 1017.8mb 74f
4:12 17 22 mph 1017.8mb 73f
4:06 15 20 mph 1017.9mb 74f
4:00 15 22 mph 1018mb 73f
3:54 15 21 mph 1018mb 73f
3:48 14 18 mph 1018.1mb 73f
3:42 15 18 mph 1018.1mb 71f
3:36 16 18 mph 1018.2mb 71f
3:30 18 23 mph 1018.2mb 72f
3:24 13 15 mph 1018.3mb 70f
3:18 13 16 mph 1018.3mb 71f
3:12 13 17 mph 1018.4mb 71f
3:06 13 17 mph 1018.4mb 71f
3:00 11 15 mph 1018.4mb 70f
2:54 11 16 mph 1018.4mb 70f
2:48 10 14 mph 1018.5mb 70f
2:42 10 13 mph 1018.5mb 69f
2:36 11 14 mph 1018.7mb 68f
2:30 11 14 mph 1018.7mb 68f
2:24 9 13 mph 1018.6mb 68f
2:18 9 14 mph 1018.5mb 69f
2:12 9 11 mph 1018.5mb 69f
2:06 13 14 mph 1018.5mb 68f
2:00 14 16 mph 1018.6mb 68f
1:54 14 16 mph 1018.7mb 68f
1:48 9 14 mph 1018.8mb 69f
1:36 11 15 mph 1018.9mb 69f
1:30 9 14 mph 1019mb 69f
1:24 11 16 mph 1018.9mb 68f
1:18 16 18 mph 1018.9mb 67f
1:12 16 17 mph 1019mb 67f
1:06 16 18 mph 1018.9mb 67f
1:00 16 17 mph 1018.9mb 67f
12:54 15 17 mph 1018.8mb 68f
12:48 14 16 mph 1018.9mb 68f
12:42 14 16 mph 1018.8mb 73f
12:36 14 15 mph 1018.8mb 69f
12:30 14 18 mph 1018.9mb 66f
12:24 21 22 mph 1018.8mb 66f
12:18 18 21 mph 1019mb 67f
12:12 16 17 mph 1019.2mb 67f
12:06 14 17 mph 1019.1mb 67f
12:00 14 16 mph 1019mb 67f
11:54 15 17 mph 1019.1mb 66f
11:48 16 18 mph 1019.1mb 65f
11:42 14 15 mph 1019.2mb 65f
11:36 9 11 mph 1019.4mb 65f
11:30 13 14 mph 1019.4mb 65f
11:24 13 14 mph 1019.5mb 65f
11:18 14 15 mph 1019.5mb 65f
11:12 15 17 mph 1019.6mb 64f
11:06 15 17 mph 1019.7mb 64f
11:00 14 16 mph 1019.6mb 64f
10:54 14 15 mph 1019.6mb 64f
10:48 14 16 mph 1019.6mb 64f
10:42 9 11 mph 1019.6mb 64f
10:36 8 10 mph 1019.5mb 64f
10:30 7 8 mph 1019.4mb 64f
10:24 7 8 mph 1019.4mb 64f
10:18 6
mph
1019.4mb 64f
10:12 5 6 mph 1019.4mb 64f
10:06 6
mph
1019.5mb 64f
10:00 6
mph
1019.6mb 64f
9:54 6
mph
1019.6mb 63f
9:48 6
mph
1019.6mb 63f
9:42 6 7 mph 1019.7mb 63f
9:36 7 9 mph 1019.7mb 63f
9:30 9 10 mph 1019.7mb 63f
9:24 9
mph
1019.7mb 63f
9:18 9 10 mph 1019.7mb 63f
9:12 9
mph
1019.7mb 63f
9:06 9 10 mph 1019.7mb 62f
9:00 9
mph
1019.6mb 62f
8:54 8
mph
1019.5mb 62f
8:48 7 8 mph 1019.6mb 62f
8:42 6 7 mph 1019.6mb 62f
8:36 7
mph
1019.6mb 62f
8:30 6 7 mph 1019.7mb 62f
8:24 5 6 mph 1019.6mb 62f
8:18 5 6 mph 1019.6mb 62f
8:12 5
mph
1019.6mb 62f
8:06 6 7 mph 1019.7mb 62f
8:00 6 8 mph 1019.6mb 63f
7:54 5 6 mph 1019.7mb 62f
7:48 3 5 mph 1019.8mb 62f
7:42 3 5 mph 1019.9mb 62f
7:36 5 6 mph 1019.8mb 62f
7:30 6 7 mph 1019.9mb 62f
7:24 6 7 mph 1019.9mb 62f
7:18 5 6 mph 1020mb 62f
7:12 6 8 mph 1020mb 61f
7:06 6 8 mph 1019.9mb 61f
7:00 6 8 mph 1020mb 61f
6:54 8 10 mph 1019.9mb 61f
6:48 6 8 mph 1020mb 61f
6:42 5 6 mph 1020mb 61f
6:36 6 8 mph 1020mb 61f
6:30 6 7 mph 1020mb 61f
6:24 5 6 mph 1019.9mb 61f
6:18 6 7 mph 1019.8mb 61f
6:12 5 7 mph 1019.7mb 61f
6:06 7 8 mph 1019.7mb 61f
6:00 3
mph
1019.7mb 61f
5:54 3 5 mph 1019.7mb 61f
5:48 3 5 mph 1019.7mb 61f
5:42 3 5 mph 1019.7mb 61f
5:36 3 5 mph 1019.7mb 60f
5:30 5 6 mph 1019.6mb 60f
5:24 2 3 mph 1019.6mb 60f
5:18 3 6 mph 1019.6mb 60f
5:12 3 6 mph 1019.6mb 60f
5:06 3
mph
1019.6mb 60f
5:00 2 5 mph 1019.6mb 60f
4:54 2 5 mph 1019.7mb 60f
4:48 1 3 mph 1019.7mb 60f
4:42 2 3 mph 1019.7mb 60f
4:36 2 3 mph 1019.7mb 60f
4:30 5 7 mph 1019.6mb 60f
4:24 5 7 mph 1019.5mb 60f
4:18 5 7 mph 1019.5mb 61f
4:12 3 5 mph 1019.4mb 61f
4:06 5 7 mph 1019.5mb 61f
4:00 6 8 mph 1019.5mb 61f
3:54 5 8 mph 1019.5mb 61f
3:48 6 7 mph 1019.4mb 61f
3:42 6 7 mph 1019.4mb 62f
3:36 6 7 mph 1019.3mb 62f
3:30 6 9 mph 1019.3mb 61f
3:24 6 8 mph 1019.4mb 62f
3:18 8 9 mph 1019.3mb 61f
3:12 6
mph
1019.5mb 62f
3:06 5
mph
1019.6mb 62f
3:00 5 6 mph 1019.6mb 62f
2:54 6 7 mph 1019.5mb 62f
2:48 6
mph
1019.4mb 62f
2:42 6 7 mph 1019.4mb 62f
2:36 6 7 mph 1019.3mb 62f
2:30 7 8 mph 1019.3mb 63f
2:24 6 7 mph 1019.4mb 63f
2:18 5 6 mph 1019.3mb 63f
2:12 5 6 mph 1019.2mb 63f
2:06 5 6 mph 1019.2mb 63f
2:00  -  mph 1019.2mb 63f
1:54  -  mph 1019.1mb 63f
1:48  -  mph 1019.1mb 63f
1:42  -  mph 1019.1mb 64f
1:36  -  mph 1019mb 64f
1:30 5 6 mph 1019mb 63f
1:24 6 7 mph 1019mb 64f
1:18 3 6 mph 1019mb 64f
1:12 6 7 mph 1018.9mb 64f
1:06 6 7 mph 1019mb 65f
1:00 6 7 mph 1019.2mb 64f
12:54 1 5 mph 1019.4mb 64f
12:48 2 3 mph 1019.4mb 64f
12:42 3
mph
1019.3mb 64f
12:36 1 3 mph 1019.3mb 64f
12:30 5 6 mph 1019.3mb 64f
12:24 5 6 mph 1019.2mb 64f
12:18 3 6 mph 1019.2mb 66f
12:12  -  2 mph 1019.1mb 67f
12:06  -  2 mph 1019.1mb 67f
12:00 3 5 mph 1019.1mb 68f
jue 05/26 11:54 5 6 mph 1019mb 68f
11:48  -  mph 1019mb 68f
11:42  -  mph 1019mb 68f
11:36  -  mph 1019.2mb 68f
11:30 6 7 mph 1019.3mb 68f
11:24 6 7 mph 1019.4mb 68f
11:18  -  mph 1019.3mb -
11:12  -  mph 1019.3mb -
11:06  -  mph 1019.2mb -
11:00  -  mph 1019.1mb -
10:54  -  mph 1019.1mb -
10:48 5 6 mph 1019.2mb -
10:42 7 8 mph 1019mb -
10:36 7 8 mph 1019mb -
10:30 7 9 mph - -
10:24 7 8 mph - -
10:18  -  mph 1019.2mb 68f
10:12  -  mph 1019.2mb 68f
10:06  -  mph 1019mb 69f
10:00  -  mph 1019mb -
9:54  -  mph 1018.9mb -
9:48  -  mph 1018.9mb -
9:42  -  mph 1018.8mb -
9:36  -  mph 1018.7mb -
9:30 7 8 mph 1018.6mb -
9:24 8 10 mph 1018.5mb -
9:18  -  mph 1018.4mb -
9:12  -  mph 1018.4mb -
9:06  -  mph 1018.3mb -
9:00  -  mph 1018.3mb -
8:54  -  mph 1018.2mb -
8:48  -  mph 1018.2mb -
8:42  -  mph 1018mb -
8:36  -  mph 1017.8mb -
8:30 10 14 mph 1017.7mb -
8:24 9 10 mph 1017.8mb -
8:18  -  mph - 73f
8:12  -  mph - 74f
8:06  -  mph - 74f
8:00  -  mph 1017.8mb -
7:54  -  mph 1017.7mb -
7:48  -  mph 1017.8mb -
7:42  -  mph 1017.8mb -
7:36  -  mph 1017.9mb -
7:30 6 8 mph 1017.9mb -
7:24 6 10 mph 1017.9mb -
7:18  -  mph - 75f
7:12  -  mph - 76f
7:06  -  mph - 76f
7:00 10 14 mph 1017.7mb -
6:54 8 10 mph 1017.7mb -
6:48 10 14 mph 1017.7mb -
6:42 7 8 mph 1017.6mb -
6:36 8 11 mph 1017.6mb -
6:30 10 13 mph 1017.6mb -
6:18  -  mph 1017.6mb 79f
6:12  -  mph 1017.6mb 79f
6:06  -  mph 1017.6mb 79f
6:00 11 15 mph 1017.6mb -
5:54 14 18 mph 1017.5mb -
5:48 11 16 mph 1017.5mb -
5:42 9 13 mph 1017.5mb -
5:36 11 15 mph 1017.5mb -
5:30 14 20 mph 1017.5mb 78f
5:24 14 16 mph 1017.5mb 79f
5:18 14 20 mph 1017.5mb 80f
5:12 11 15 mph 1017.5mb 79f
5:06 16 20 mph 1017.4mb 79f
5:00 14 20 mph 1017.4mb 80f
4:54 14 20 mph 1017.4mb 80f
4:48 14 17 mph 1017.4mb 80f
4:42 13 15 mph 1017.4mb 80f
4:36 13 15 mph 1017.5mb 81f
4:30 14 20 mph 1017.4mb 81f
4:24 13 18 mph 1017.4mb 81f
4:18 14 20 mph 1017.4mb 81f
4:12 13 17 mph 1017.5mb 81f
4:06 10 15 mph 1017.6mb 81f
4:00 11 14 mph 1017.6mb 81f
3:54 10 14 mph 1017.7mb 80f
3:48 14 18 mph 1017.6mb 80f
3:42 16 22 mph 1017.6mb 81f
3:36 11 14 mph 1017.6mb 81f
3:30 11 21 mph 1017.6mb 80f
3:24 13 18 mph 1017.5mb 81f
3:18 15 20 mph 1017.5mb 79f
3:12 16 20 mph 1017.6mb 80f
3:06 15 20 mph 1017.5mb 80f
3:00 16 22 mph 1017.5mb 80f
2:54 14 17 mph 1017.6mb 80f
2:48 10 16 mph 1017.7mb 80f
2:42 13 16 mph 1017.7mb 79f
2:36 13 16 mph 1017.7mb 79f
2:30 13 18 mph 1017.8mb 79f
2:24 16 18 mph 1017.8mb 79f
2:18 15 18 mph 1017.8mb 76f
2:12 17 20 mph 1017.9mb 76f
2:06 16 18 mph 1018mb 75f
2:00 20 22 mph 1018mb 71f
1:54 18 20 mph 1018mb 72f
1:48  -  mph 1017.9mb 72f
1:42  -  mph 1017.9mb 72f
1:36  -  mph 1017.9mb 70f
1:30 17 18 mph 1017.9mb 70f
1:24 15 16 mph 1018mb 71f
1:18 14
mph
1018.1mb 70f
1:12 11 13 mph 1018.1mb 71f
1:06 11
mph
1018.2mb 71f
1:00 11
mph
1018.2mb 71f
12:54 10 11 mph 1018.3mb 71f
12:48 11
mph
1018.4mb 72f
12:42 9
mph
1018.4mb 72f
12:36 9
mph
1018.5mb 72f
12:30 9
mph
1018.5mb 74f
12:24 9 10 mph 1018.6mb 76f
12:18 10
mph
1018.6mb 76f
12:12 9 10 mph 1018.6mb 75f
12:06 9 10 mph 1018.7mb 75f
12:00 8 9 mph 1018.7mb 78f
11:54 8
mph
1018.7mb 79f
11:48 7 8 mph 1018.8mb 78f
11:42 7 8 mph 1018.8mb 76f
11:36 7
mph
1018.9mb 76f
11:24 7
mph
1018.9mb 73f
11:18 3 5 mph 1019mb 73f
11:12 3
mph
1019mb 72f
11:06 3
mph
1019mb 71f
11:00 3 5 mph 1019mb 71f